KLM1817 EHAM-EDDF
Flight info
| Callsign | KLM1817 |
|---|---|
| Flight time | 0h 50m |
| Altitude | 33000 |
| Route | EDUPO Z739 MISGO DCT DIXAT DIXAT1A |
| Aircraft | E75L/M-SDE3GILORVW/S |
Departure
| Time | 2026-05-06 11:12 |
|---|---|
| Airport | Amsterdam Airport Schiphol (EHAM) |
Arrival
| Time | 2026-05-06 12:03 |
|---|---|
| Airport | Frankfurt Main Airport (EDDF) |
| Time | Latitude | Longitude | Altitude | Speed | Heading |
|---|---|---|---|---|---|
| 2026-05-06 10:45 | 52.30339 | 4.76032 | -3 ft | 0 kts | 238° |
| 2026-05-06 11:02 | 52.30353 | 4.76062 | -3 ft | 4 kts | 225° |
| 2026-05-06 11:02 | 52.30374 | 4.76078 | -3 ft | 4 kts | 163° |
| 2026-05-06 11:03 | 52.30381 | 4.76073 | -3 ft | 2 kts | 146° |
| 2026-05-06 11:07 | 52.30378 | 4.76076 | -3 ft | 2 kts | 146° |
| 2026-05-06 11:07 | 52.30355 | 4.76103 | -3 ft | 6 kts | 145° |
| 2026-05-06 11:07 | 52.30305 | 4.76155 | -3 ft | 9 kts | 150° |
| 2026-05-06 11:07 | 52.30245 | 4.76215 | -3 ft | 11 kts | 148° |
| 2026-05-06 11:08 | 52.30185 | 4.76228 | -3 ft | 9 kts | 227° |
| 2026-05-06 11:08 | 52.30144 | 4.76126 | -3 ft | 12 kts | 238° |
| 2026-05-06 11:08 | 52.30092 | 4.75991 | -3 ft | 16 kts | 238° |
| 2026-05-06 11:08 | 52.30032 | 4.75833 | -3 ft | 17 kts | 238° |
| 2026-05-06 11:09 | 52.29968 | 4.75668 | -3 ft | 18 kts | 237° |
| 2026-05-06 11:09 | 52.29901 | 4.75494 | -3 ft | 19 kts | 238° |
| 2026-05-06 11:09 | 52.29835 | 4.75308 | -3 ft | 19 kts | 254° |
| 2026-05-06 11:09 | 52.29882 | 4.75121 | -3 ft | 19 kts | 311° |
| 2026-05-06 11:10 | 52.29970 | 4.74958 | -3 ft | 20 kts | 311° |
| 2026-05-06 11:10 | 52.30064 | 4.74784 | -2 ft | 21 kts | 312° |
| 2026-05-06 11:10 | 52.30152 | 4.74622 | 8 ft | 18 kts | 311° |
| 2026-05-06 11:10 | 52.30246 | 4.74449 | 8 ft | 23 kts | 310° |
| 2026-05-06 11:11 | 52.30366 | 4.74221 | -3 ft | 29 kts | 311° |
| 2026-05-06 11:11 | 52.30426 | 4.74063 | -3 ft | 11 kts | 262° |
| 2026-05-06 11:11 | 52.30407 | 4.73923 | -4 ft | 15 kts | 271° |
| 2026-05-06 11:11 | 52.30444 | 4.73762 | -5 ft | 13 kts | 340° |
| 2026-05-06 11:12 | 52.30624 | 4.73776 | -5 ft | 55 kts | 2° |
| 2026-05-06 11:12 | 52.31234 | 4.73832 | -5 ft | 119 kts | 3° |
| 2026-05-06 11:12 | 52.32203 | 4.73931 | 252 ft | 147 kts | 5° |
| 2026-05-06 11:12 | 52.33224 | 4.74043 | 930 ft | 152 kts | 3° |
| 2026-05-06 11:13 | 52.34316 | 4.74341 | 1348 ft | 168 kts | 20° |
| 2026-05-06 11:13 | 52.35415 | 4.75114 | 1886 ft | 176 kts | 26° |
| 2026-05-06 11:13 | 52.36553 | 4.75983 | 2423 ft | 185 kts | 24° |
| 2026-05-06 11:13 | 52.37725 | 4.76961 | 2928 ft | 194 kts | 35° |
| 2026-05-06 11:14 | 52.38779 | 4.78509 | 3308 ft | 215 kts | 44° |
| 2026-05-06 11:14 | 52.39866 | 4.80343 | 3741 ft | 233 kts | 45° |
| 2026-05-06 11:14 | 52.41037 | 4.82319 | 4189 ft | 249 kts | 45° |
| 2026-05-06 11:14 | 52.42062 | 4.84662 | 4718 ft | 259 kts | 67° |
| 2026-05-06 11:15 | 52.42363 | 4.87579 | 5394 ft | 263 kts | 87° |
| 2026-05-06 11:15 | 52.42398 | 4.90581 | 6037 ft | 265 kts | 88° |
| 2026-05-06 11:15 | 52.42415 | 4.93621 | 6622 ft | 269 kts | 89° |
| 2026-05-06 11:15 | 52.42348 | 4.96651 | 7188 ft | 272 kts | 99° |
| 2026-05-06 11:16 | 52.41587 | 4.99518 | 7644 ft | 283 kts | 128° |
| 2026-05-06 11:16 | 52.40088 | 5.01623 | 8228 ft | 286 kts | 142° |
| 2026-05-06 11:16 | 52.38474 | 5.03530 | 8853 ft | 286 kts | 143° |
| 2026-05-06 11:16 | 52.38188 | 5.03865 | 8965 ft | 286 kts | 143° |
| 2026-05-06 11:17 | 52.36969 | 5.05288 | 9417 ft | 287 kts | 144° |
| 2026-05-06 11:17 | 52.35336 | 5.07163 | 10028 ft | 288 kts | 144° |
| 2026-05-06 11:17 | 52.35118 | 5.07410 | 10078 ft | 290 kts | 144° |
| 2026-05-06 11:17 | 52.34030 | 5.08636 | 10166 ft | 302 kts | 144° |
| 2026-05-06 11:18 | 52.32435 | 5.10958 | 10454 ft | 312 kts | 133° |
| 2026-05-06 11:18 | 52.30965 | 5.13622 | 10934 ft | 317 kts | 130° |
| 2026-05-06 11:18 | 52.29509 | 5.16336 | 11484 ft | 319 kts | 131° |
| 2026-05-06 11:18 | 52.28032 | 5.19064 | 12039 ft | 322 kts | 131° |
| 2026-05-06 11:19 | 52.26541 | 5.21805 | 12599 ft | 324 kts | 131° |
| 2026-05-06 11:19 | 52.25035 | 5.24565 | 13153 ft | 327 kts | 131° |
| 2026-05-06 11:19 | 52.23541 | 5.27375 | 13710 ft | 329 kts | 128° |
| 2026-05-06 11:19 | 52.22225 | 5.30440 | 14275 ft | 332 kts | 123° |
| 2026-05-06 11:20 | 52.20930 | 5.33578 | 14846 ft | 334 kts | 124° |
| 2026-05-06 11:20 | 52.19605 | 5.36704 | 15416 ft | 337 kts | 125° |
| 2026-05-06 11:20 | 52.18255 | 5.39850 | 15992 ft | 339 kts | 125° |
| 2026-05-06 11:20 | 52.16906 | 5.42966 | 16530 ft | 342 kts | 125° |
| 2026-05-06 11:21 | 52.15523 | 5.46150 | 17077 ft | 345 kts | 126° |
| 2026-05-06 11:21 | 52.14126 | 5.49354 | 17624 ft | 348 kts | 126° |
| 2026-05-06 11:21 | 52.12722 | 5.52579 | 18201 ft | 351 kts | 126° |
| 2026-05-06 11:21 | 52.11300 | 5.55830 | 18761 ft | 354 kts | 126° |
| 2026-05-06 11:22 | 52.09864 | 5.59106 | 19317 ft | 357 kts | 126° |
| 2026-05-06 11:22 | 52.08415 | 5.62409 | 19884 ft | 360 kts | 126° |
| 2026-05-06 11:22 | 52.06955 | 5.65740 | 20428 ft | 363 kts | 126° |
| 2026-05-06 11:22 | 52.05466 | 5.69079 | 20960 ft | 366 kts | 128° |
| 2026-05-06 11:23 | 52.03794 | 5.72213 | 21462 ft | 369 kts | 132° |
| 2026-05-06 11:23 | 52.02066 | 5.75322 | 21942 ft | 372 kts | 132° |
| 2026-05-06 11:23 | 52.00339 | 5.78481 | 22413 ft | 375 kts | 131° |
| 2026-05-06 11:23 | 51.98614 | 5.81671 | 22885 ft | 378 kts | 131° |
| 2026-05-06 11:24 | 51.96875 | 5.84887 | 23364 ft | 381 kts | 131° |
| 2026-05-06 11:24 | 51.95128 | 5.88138 | 23824 ft | 384 kts | 131° |
| 2026-05-06 11:24 | 51.93369 | 5.91423 | 24295 ft | 387 kts | 131° |
| 2026-05-06 11:24 | 51.91598 | 5.94721 | 24810 ft | 389 kts | 131° |
| 2026-05-06 11:25 | 51.89814 | 5.98041 | 25320 ft | 391 kts | 131° |
| 2026-05-06 11:25 | 51.88023 | 6.01372 | 25793 ft | 393 kts | 131° |
| 2026-05-06 11:25 | 51.86830 | 6.03587 | 26081 ft | 394 kts | 131° |
| 2026-05-06 11:25 | 51.85026 | 6.06934 | 26478 ft | 397 kts | 131° |
| 2026-05-06 11:26 | 51.83195 | 6.10301 | 26866 ft | 398 kts | 131° |
| 2026-05-06 11:26 | 51.81361 | 6.13670 | 27237 ft | 400 kts | 131° |
| 2026-05-06 11:26 | 51.79517 | 6.17047 | 27611 ft | 402 kts | 131° |
| 2026-05-06 11:26 | 51.77663 | 6.20444 | 27956 ft | 404 kts | 131° |
| 2026-05-06 11:27 | 51.75796 | 6.23856 | 28307 ft | 406 kts | 131° |
| 2026-05-06 11:27 | 51.73923 | 6.27271 | 28633 ft | 407 kts | 131° |
| 2026-05-06 11:27 | 51.72042 | 6.30705 | 28941 ft | 409 kts | 131° |
| 2026-05-06 11:27 | 51.70155 | 6.34139 | 29245 ft | 410 kts | 131° |
| 2026-05-06 11:28 | 51.68259 | 6.37590 | 29513 ft | 412 kts | 131° |
| 2026-05-06 11:28 | 51.66357 | 6.41041 | 29786 ft | 413 kts | 131° |
| 2026-05-06 11:28 | 51.64443 | 6.44506 | 30051 ft | 414 kts | 131° |
| 2026-05-06 11:28 | 51.62526 | 6.47977 | 30302 ft | 415 kts | 131° |
| 2026-05-06 11:29 | 51.60602 | 6.51459 | 30513 ft | 417 kts | 132° |
| 2026-05-06 11:29 | 51.58695 | 6.54902 | 30696 ft | 419 kts | 132° |
| 2026-05-06 11:29 | 51.56754 | 6.58405 | 30912 ft | 420 kts | 132° |
| 2026-05-06 11:29 | 51.54809 | 6.61910 | 31112 ft | 422 kts | 132° |
| 2026-05-06 11:30 | 51.52852 | 6.65431 | 31305 ft | 423 kts | 132° |
| 2026-05-06 11:30 | 51.50889 | 6.68961 | 31479 ft | 425 kts | 132° |
| 2026-05-06 11:30 | 51.48917 | 6.72498 | 31671 ft | 426 kts | 132° |
| 2026-05-06 11:30 | 51.46935 | 6.76049 | 31864 ft | 428 kts | 133° |
| 2026-05-06 11:31 | 51.44947 | 6.79605 | 32054 ft | 429 kts | 133° |
| 2026-05-06 11:31 | 51.42955 | 6.83163 | 32314 ft | 428 kts | 133° |
| 2026-05-06 11:31 | 51.40972 | 6.86705 | 32584 ft | 427 kts | 133° |
| 2026-05-06 11:31 | 51.39005 | 6.90304 | 32406 ft | 428 kts | 130° |
| 2026-05-06 11:32 | 51.37194 | 6.93991 | 31927 ft | 421 kts | 129° |
| 2026-05-06 11:32 | 51.35415 | 6.97651 | 31617 ft | 409 kts | 129° |
| 2026-05-06 11:32 | 51.33680 | 7.01179 | 31423 ft | 397 kts | 129° |
| 2026-05-06 11:32 | 51.31972 | 7.04620 | 31171 ft | 395 kts | 129° |
| 2026-05-06 11:33 | 51.30266 | 7.08042 | 31276 ft | 394 kts | 129° |
| 2026-05-06 11:33 | 51.28522 | 7.11524 | 30614 ft | 406 kts | 129° |
| 2026-05-06 11:33 | 51.26601 | 7.14796 | 30097 ft | 403 kts | 141° |
| 2026-05-06 11:33 | 51.24259 | 7.17212 | 29531 ft | 401 kts | 153° |
| 2026-05-06 11:34 | 51.21764 | 7.19195 | 28975 ft | 401 kts | 155° |
| 2026-05-06 11:34 | 51.19248 | 7.21123 | 28433 ft | 401 kts | 155° |
| 2026-05-06 11:34 | 51.16730 | 7.23071 | 27874 ft | 404 kts | 155° |
| 2026-05-06 11:34 | 51.14197 | 7.25047 | 27347 ft | 405 kts | 154° |
| 2026-05-06 11:35 | 51.11672 | 7.27030 | 26807 ft | 404 kts | 154° |
| 2026-05-06 11:35 | 51.09177 | 7.29048 | 26274 ft | 401 kts | 153° |
| 2026-05-06 11:35 | 51.06716 | 7.31096 | 25739 ft | 398 kts | 153° |
| 2026-05-06 11:35 | 51.04266 | 7.33128 | 25201 ft | 395 kts | 153° |
| 2026-05-06 11:36 | 51.01833 | 7.35141 | 24679 ft | 393 kts | 153° |
| 2026-05-06 11:36 | 50.99420 | 7.37132 | 24162 ft | 390 kts | 153° |
| 2026-05-06 11:36 | 50.97042 | 7.39086 | 23650 ft | 388 kts | 153° |
| 2026-05-06 11:36 | 50.94653 | 7.41052 | 23134 ft | 385 kts | 153° |
| 2026-05-06 11:37 | 50.92283 | 7.42998 | 22628 ft | 382 kts | 154° |
| 2026-05-06 11:37 | 50.89933 | 7.44924 | 22115 ft | 379 kts | 154° |
| 2026-05-06 11:37 | 50.87599 | 7.46838 | 21633 ft | 376 kts | 153° |
| 2026-05-06 11:37 | 50.85289 | 7.48730 | 21121 ft | 372 kts | 154° |
| 2026-05-06 11:38 | 50.82995 | 7.50605 | 20614 ft | 369 kts | 154° |
| 2026-05-06 11:38 | 50.80722 | 7.52456 | 20129 ft | 366 kts | 154° |
| 2026-05-06 11:38 | 50.78467 | 7.54294 | 19641 ft | 363 kts | 154° |
| 2026-05-06 11:38 | 50.76231 | 7.56115 | 19164 ft | 360 kts | 154° |
| 2026-05-06 11:39 | 50.74013 | 7.57919 | 18686 ft | 357 kts | 154° |
| 2026-05-06 11:39 | 50.71816 | 7.59702 | 18215 ft | 354 kts | 154° |
| 2026-05-06 11:39 | 50.69634 | 7.61473 | 17759 ft | 351 kts | 154° |
| 2026-05-06 11:39 | 50.67472 | 7.63226 | 17306 ft | 348 kts | 154° |
| 2026-05-06 11:40 | 50.65325 | 7.64963 | 16892 ft | 345 kts | 154° |
| 2026-05-06 11:40 | 50.63191 | 7.66683 | 16466 ft | 344 kts | 154° |
| 2026-05-06 11:40 | 50.61068 | 7.68400 | 16047 ft | 343 kts | 154° |
| 2026-05-06 11:40 | 50.58947 | 7.70114 | 15636 ft | 341 kts | 154° |
| 2026-05-06 11:41 | 50.56843 | 7.71812 | 15222 ft | 339 kts | 154° |
| 2026-05-06 11:41 | 50.54752 | 7.73497 | 14818 ft | 337 kts | 154° |
| 2026-05-06 11:41 | 50.52675 | 7.75169 | 14415 ft | 331 kts | 154° |
| 2026-05-06 11:41 | 50.50674 | 7.76778 | 14033 ft | 324 kts | 154° |
| 2026-05-06 11:42 | 50.48689 | 7.78373 | 13654 ft | 317 kts | 155° |
| 2026-05-06 11:42 | 50.46742 | 7.79934 | 13280 ft | 311 kts | 155° |
| 2026-05-06 11:42 | 50.44832 | 7.81464 | 12929 ft | 305 kts | 155° |
| 2026-05-06 11:42 | 50.42973 | 7.82999 | 12638 ft | 298 kts | 150° |
| 2026-05-06 11:43 | 50.41324 | 7.84935 | 12327 ft | 295 kts | 142° |
| 2026-05-06 11:43 | 50.39771 | 7.87024 | 12036 ft | 293 kts | 142° |
| 2026-05-06 11:43 | 50.38198 | 7.89071 | 11784 ft | 294 kts | 143° |
| 2026-05-06 11:44 | 50.34989 | 7.93094 | 11215 ft | 295 kts | 144° |
| 2026-05-06 11:44 | 50.33381 | 7.95082 | 10926 ft | 295 kts | 144° |
| 2026-05-06 11:44 | 50.31773 | 7.97069 | 10649 ft | 294 kts | 144° |
| 2026-05-06 11:44 | 50.30174 | 7.99053 | 10373 ft | 293 kts | 144° |
| 2026-05-06 11:45 | 50.28576 | 8.01023 | 10091 ft | 292 kts | 143° |
| 2026-05-06 11:45 | 50.26988 | 8.02984 | 9924 ft | 288 kts | 143° |
| 2026-05-06 11:45 | 50.25585 | 8.05229 | 9849 ft | 291 kts | 132° |
| 2026-05-06 11:45 | 50.24331 | 8.07743 | 9741 ft | 294 kts | 129° |
| 2026-05-06 11:46 | 50.23115 | 8.10283 | 9765 ft | 292 kts | 129° |
| 2026-05-06 11:46 | 50.21882 | 8.12813 | 9804 ft | 294 kts | 129° |
| 2026-05-06 11:46 | 50.20633 | 8.15350 | 9778 ft | 295 kts | 129° |
| 2026-05-06 11:46 | 50.19385 | 8.17880 | 9788 ft | 294 kts | 129° |
| 2026-05-06 11:47 | 50.18370 | 8.20637 | 9802 ft | 297 kts | 107° |
| 2026-05-06 11:47 | 50.18195 | 8.23853 | 9854 ft | 300 kts | 90° |
| 2026-05-06 11:47 | 50.18189 | 8.27120 | 9798 ft | 302 kts | 91° |
| 2026-05-06 11:47 | 50.18205 | 8.30379 | 9801 ft | 300 kts | 90° |
| 2026-05-06 11:48 | 50.18266 | 8.33635 | 9796 ft | 300 kts | 89° |
| 2026-05-06 11:48 | 50.18345 | 8.36895 | 9770 ft | 299 kts | 89° |
| 2026-05-06 11:48 | 50.18432 | 8.40133 | 9802 ft | 299 kts | 89° |
| 2026-05-06 11:48 | 50.18527 | 8.43371 | 9778 ft | 296 kts | 89° |
| 2026-05-06 11:49 | 50.18613 | 8.46454 | 9714 ft | 281 kts | 89° |
| 2026-05-06 11:49 | 50.18699 | 8.49451 | 9581 ft | 272 kts | 89° |
| 2026-05-06 11:49 | 50.18785 | 8.52421 | 9294 ft | 279 kts | 88° |
| 2026-05-06 11:49 | 50.18875 | 8.55497 | 9027 ft | 289 kts | 88° |
| 2026-05-06 11:50 | 50.18962 | 8.58663 | 8750 ft | 294 kts | 88° |
| 2026-05-06 11:50 | 50.19046 | 8.61849 | 8483 ft | 294 kts | 89° |
| 2026-05-06 11:50 | 50.19131 | 8.65031 | 8205 ft | 293 kts | 88° |
| 2026-05-06 11:50 | 50.19211 | 8.68195 | 7951 ft | 291 kts | 88° |
| 2026-05-06 11:51 | 50.19292 | 8.71336 | 7704 ft | 288 kts | 88° |
| 2026-05-06 11:51 | 50.19372 | 8.74453 | 7517 ft | 283 kts | 89° |
| 2026-05-06 11:51 | 50.19470 | 8.77437 | 7461 ft | 269 kts | 84° |
| 2026-05-06 11:51 | 50.19803 | 8.80249 | 7286 ft | 264 kts | 76° |
| 2026-05-06 11:52 | 50.20391 | 8.83021 | 7136 ft | 274 kts | 69° |
| 2026-05-06 11:52 | 50.21100 | 8.85782 | 6983 ft | 272 kts | 68° |
| 2026-05-06 11:52 | 50.21809 | 8.88474 | 6884 ft | 262 kts | 68° |
| 2026-05-06 11:52 | 50.22440 | 8.91069 | 6848 ft | 250 kts | 70° |
| 2026-05-06 11:53 | 50.23013 | 8.93568 | 6788 ft | 240 kts | 70° |
| 2026-05-06 11:53 | 50.23576 | 8.96012 | 6610 ft | 242 kts | 70° |
| 2026-05-06 11:53 | 50.24163 | 8.98539 | 6423 ft | 252 kts | 70° |
| 2026-05-06 11:53 | 50.24856 | 9.01073 | 6252 ft | 256 kts | 65° |
| 2026-05-06 11:54 | 50.25284 | 9.03759 | 6072 ft | 257 kts | 92° |
| 2026-05-06 11:54 | 50.24781 | 9.06382 | 5902 ft | 254 kts | 124° |
| 2026-05-06 11:54 | 50.23491 | 9.08197 | 5728 ft | 251 kts | 152° |
| 2026-05-06 11:54 | 50.21939 | 9.09446 | 5559 ft | 250 kts | 156° |
| 2026-05-06 11:55 | 50.20287 | 9.09964 | 5371 ft | 247 kts | 187° |
| 2026-05-06 11:55 | 50.18709 | 9.09028 | 5197 ft | 245 kts | 219° |
| 2026-05-06 11:55 | 50.17576 | 9.07074 | 5017 ft | 243 kts | 224° |
| 2026-05-06 11:55 | 50.16223 | 9.05507 | 4853 ft | 243 kts | 213° |
| 2026-05-06 11:56 | 50.14856 | 9.03962 | 4680 ft | 242 kts | 223° |
| 2026-05-06 11:56 | 50.14002 | 9.01738 | 4506 ft | 243 kts | 252° |
| 2026-05-06 11:56 | 50.13579 | 8.99219 | 4324 ft | 237 kts | 253° |
| 2026-05-06 11:56 | 50.13014 | 8.96847 | 4139 ft | 231 kts | 246° |
| 2026-05-06 11:57 | 50.12417 | 8.94551 | 3971 ft | 226 kts | 250° |
| 2026-05-06 11:57 | 50.11933 | 8.92338 | 4039 ft | 206 kts | 251° |
| 2026-05-06 11:57 | 50.11461 | 8.90293 | 3990 ft | 196 kts | 249° |
| 2026-05-06 11:57 | 50.10981 | 8.88297 | 4013 ft | 198 kts | 250° |
| 2026-05-06 11:58 | 50.10512 | 8.86279 | 4004 ft | 196 kts | 250° |
| 2026-05-06 11:58 | 50.10048 | 8.84283 | 3814 ft | 197 kts | 250° |
| 2026-05-06 11:58 | 50.09579 | 8.82295 | 3554 ft | 194 kts | 249° |
| 2026-05-06 11:58 | 50.09116 | 8.80331 | 3275 ft | 192 kts | 249° |
| 2026-05-06 11:59 | 50.08664 | 8.78389 | 3005 ft | 190 kts | 249° |
| 2026-05-06 11:59 | 50.08212 | 8.76474 | 2763 ft | 186 kts | 249° |
| 2026-05-06 11:59 | 50.07769 | 8.74600 | 2511 ft | 180 kts | 249° |
| 2026-05-06 11:59 | 50.07359 | 8.72856 | 2277 ft | 164 kts | 249° |
| 2026-05-06 12:00 | 50.06981 | 8.71252 | 2051 ft | 153 kts | 249° |
| 2026-05-06 12:00 | 50.06625 | 8.69744 | 1865 ft | 150 kts | 248° |
| 2026-05-06 12:00 | 50.06264 | 8.68216 | 1678 ft | 150 kts | 248° |
| 2026-05-06 12:00 | 50.05905 | 8.66692 | 1475 ft | 150 kts | 248° |
| 2026-05-06 12:01 | 50.05550 | 8.65193 | 1270 ft | 146 kts | 249° |
| 2026-05-06 12:01 | 50.05204 | 8.63722 | 1068 ft | 145 kts | 249° |
| 2026-05-06 12:01 | 50.04874 | 8.62265 | 859 ft | 145 kts | 250° |
| 2026-05-06 12:01 | 50.04517 | 8.60773 | 632 ft | 145 kts | 248° |
| 2026-05-06 12:02 | 50.04172 | 8.59337 | 494 ft | 141 kts | 248° |
| 2026-05-06 12:02 | 50.03825 | 8.57907 | 373 ft | 137 kts | 250° |
| 2026-05-06 12:02 | 50.03526 | 8.56644 | 352 ft | 110 kts | 250° |
| 2026-05-06 12:02 | 50.03319 | 8.55719 | 341 ft | 66 kts | 262° |
| 2026-05-06 12:03 | 50.03338 | 8.55280 | 337 ft | 25 kts | 284° |
| 2026-05-06 12:03 | 50.03415 | 8.55183 | 341 ft | 14 kts | 39° |
| 2026-05-06 12:03 | 50.03453 | 8.55313 | 342 ft | 13 kts | 69° |
| 2026-05-06 12:03 | 50.03485 | 8.55444 | 343 ft | 13 kts | 69° |
| 2026-05-06 12:04 | 50.03519 | 8.55582 | 345 ft | 14 kts | 69° |
| 2026-05-06 12:04 | 50.03552 | 8.55724 | 347 ft | 14 kts | 70° |
| 2026-05-06 12:04 | 50.03587 | 8.55869 | 350 ft | 14 kts | 70° |
| 2026-05-06 12:04 | 50.03622 | 8.56021 | 348 ft | 16 kts | 70° |
| 2026-05-06 12:05 | 50.03664 | 8.56194 | 354 ft | 18 kts | 69° |
| 2026-05-06 12:05 | 50.03712 | 8.56400 | 355 ft | 22 kts | 70° |
| 2026-05-06 12:05 | 50.03770 | 8.56637 | 352 ft | 25 kts | 70° |
| 2026-05-06 12:05 | 50.03833 | 8.56903 | 351 ft | 27 kts | 69° |
| 2026-05-06 12:06 | 50.03899 | 8.57179 | 362 ft | 26 kts | 70° |
| 2026-05-06 12:06 | 50.03960 | 8.57436 | 363 ft | 25 kts | 69° |
| 2026-05-06 12:06 | 50.04020 | 8.57686 | 364 ft | 25 kts | 70° |
| 2026-05-06 12:06 | 50.04081 | 8.57936 | 364 ft | 25 kts | 70° |
| 2026-05-06 12:07 | 50.04141 | 8.58188 | 369 ft | 25 kts | 70° |
| 2026-05-06 12:07 | 50.04202 | 8.58440 | 367 ft | 25 kts | 69° |
| 2026-05-06 12:07 | 50.04262 | 8.58697 | 368 ft | 25 kts | 70° |
| 2026-05-06 12:07 | 50.04321 | 8.58940 | 373 ft | 23 kts | 69° |
| 2026-05-06 12:08 | 50.04377 | 8.59173 | 374 ft | 23 kts | 70° |
| 2026-05-06 12:08 | 50.04435 | 8.59413 | 373 ft | 18 kts | 69° |
| 2026-05-06 12:08 | 50.04485 | 8.59474 | 372 ft | 9 kts | 355° |
| 2026-05-06 12:08 | 50.04571 | 8.59465 | 371 ft | 15 kts | 357° |
| 2026-05-06 12:09 | 50.04682 | 8.59454 | 370 ft | 16 kts | 348° |
| 2026-05-06 12:09 | 50.04785 | 8.59399 | 370 ft | 13 kts | 0° |
| 2026-05-06 12:09 | 50.04836 | 8.59494 | 368 ft | 12 kts | 77° |
| 2026-05-06 12:09 | 50.04855 | 8.59620 | 368 ft | 12 kts | 66° |
| 2026-05-06 12:10 | 50.04886 | 8.59749 | 368 ft | 13 kts | 70° |
| 2026-05-06 12:10 | 50.04919 | 8.59890 | 368 ft | 15 kts | 70° |
| 2026-05-06 12:10 | 50.04953 | 8.60033 | 368 ft | 9 kts | 68° |
| 2026-05-06 12:10 | 50.04965 | 8.60045 | 367 ft | 2 kts | 355° |
| 2026-05-06 12:11 | 50.04971 | 8.60034 | 367 ft | 2 kts | 287° |
| 2026-05-06 12:11 | 50.04978 | 8.60003 | 367 ft | 4 kts | 297° |
| 2026-05-06 12:11 | 50.04982 | 8.59993 | 367 ft | 0 kts | 297° |